sensor_id;sensor_type;location;lat;lon;timestamp;P1;durP1;ratioP1;P2;durP2;ratioP2
19343;SDS011;9808;52.402;16.678;2023-03-31T00:02:26;13.00;;;4.77;;
19343;SDS011;9808;52.402;16.678;2023-03-31T00:04:55;9.77;;;4.47;;
19343;SDS011;9808;52.402;16.678;2023-03-31T00:07:25;13.97;;;4.90;;
19343;SDS011;9808;52.402;16.678;2023-03-31T00:09:52;13.83;;;4.80;;
19343;SDS011;9808;52.402;16.678;2023-03-31T00:12:41;8.73;;;5.10;;
19343;SDS011;9808;52.402;16.678;2023-03-31T00:15:08;9.40;;;5.00;;
19343;SDS011;9808;52.402;16.678;2023-03-31T00:17:35;9.47;;;4.97;;
19343;SDS011;9808;52.402;16.678;2023-03-31T00:20:03;11.17;;;5.30;;
19343;SDS011;9808;52.402;16.678;2023-03-31T00:22:31;10.07;;;5.50;;
19343;SDS011;9808;52.402;16.678;2023-03-31T00:24:58;11.00;;;5.30;;
19343;SDS011;9808;52.402;16.678;2023-03-31T00:27:25;11.57;;;5.90;;
19343;SDS011;9808;52.402;16.678;2023-03-31T00:29:53;10.80;;;5.20;;
19343;SDS011;9808;52.402;16.678;2023-03-31T00:32:20;12.60;;;5.53;;
19343;SDS011;9808;52.402;16.678;2023-03-31T00:34:48;11.30;;;5.03;;
19343;SDS011;9808;52.402;16.678;2023-03-31T00:37:15;18.37;;;6.17;;
19343;SDS011;9808;52.402;16.678;2023-03-31T00:39:43;11.90;;;5.60;;
19343;SDS011;9808;52.402;16.678;2023-03-31T00:42:11;13.37;;;6.27;;
19343;SDS011;9808;52.402;16.678;2023-03-31T00:45:07;12.13;;;5.53;;
19343;SDS011;9808;52.402;16.678;2023-03-31T00:47:25;11.30;;;5.57;;
19343;SDS011;9808;52.402;16.678;2023-03-31T00:49:55;13.60;;;5.47;;
19343;SDS011;9808;52.402;16.678;2023-03-31T00:52:23;15.40;;;5.90;;
19343;SDS011;9808;52.402;16.678;2023-03-31T00:54:54;12.30;;;5.53;;
19343;SDS011;9808;52.402;16.678;2023-03-31T00:57:22;10.70;;;4.93;;
19343;SDS011;9808;52.402;16.678;2023-03-31T00:59:52;10.10;;;5.17;;
19343;SDS011;9808;52.402;16.678;2023-03-31T01:02:22;11.23;;;4.87;;
19343;SDS011;9808;52.402;16.678;2023-03-31T01:04:56;10.50;;;4.70;;
19343;SDS011;9808;52.402;16.678;2023-03-31T01:09:59;10.30;;;4.93;;
19343;SDS011;9808;52.402;16.678;2023-03-31T01:12:27;9.37;;;4.30;;
19343;SDS011;9808;52.402;16.678;2023-03-31T01:14:54;11.17;;;4.73;;
19343;SDS011;9808;52.402;16.678;2023-03-31T01:17:21;9.37;;;4.43;;
19343;SDS011;9808;52.402;16.678;2023-03-31T01:43:22;9.90;;;4.47;;
19343;SDS011;9808;52.402;16.678;2023-03-31T01:45:58;8.30;;;4.20;;
19343;SDS011;9808;52.402;16.678;2023-03-31T01:48:36;10.47;;;4.10;;
19343;SDS011;9808;52.402;16.678;2023-03-31T01:51:15;10.47;;;4.00;;
19343;SDS011;9808;52.402;16.678;2023-03-31T01:56:19;8.97;;;3.97;;
19343;SDS011;9808;52.402;16.678;2023-03-31T01:59:33;8.50;;;3.73;;
19343;SDS011;9808;52.402;16.678;2023-03-31T02:01:46;8.13;;;3.73;;
19343;SDS011;9808;52.402;16.678;2023-03-31T02:04:23;10.10;;;4.40;;
19343;SDS011;9808;52.402;16.678;2023-03-31T02:06:55;8.73;;;4.20;;
19343;SDS011;9808;52.402;16.678;2023-03-31T02:09:25;12.30;;;4.73;;
19343;SDS011;9808;52.402;16.678;2023-03-31T02:11:54;11.87;;;4.50;;
19343;SDS011;9808;52.402;16.678;2023-03-31T02:14:23;11.67;;;5.00;;
19343;SDS011;9808;52.402;16.678;2023-03-31T02:16:53;9.33;;;4.63;;
19343;SDS011;9808;52.402;16.678;2023-03-31T02:19:24;11.60;;;4.03;;
19343;SDS011;9808;52.402;16.678;2023-03-31T02:21:53;9.30;;;4.60;;
19343;SDS011;9808;52.402;16.678;2023-03-31T02:24:22;8.87;;;4.90;;
19343;SDS011;9808;52.402;16.678;2023-03-31T02:26:52;12.67;;;4.80;;
19343;SDS011;9808;52.402;16.678;2023-03-31T02:29:20;10.87;;;4.40;;
19343;SDS011;9808;52.402;16.678;2023-03-31T02:32:00;9.87;;;4.60;;
19343;SDS011;9808;52.402;16.678;2023-03-31T02:34:28;8.87;;;4.53;;
19343;SDS011;9808;52.402;16.678;2023-03-31T02:36:56;13.77;;;4.90;;
19343;SDS011;9808;52.402;16.678;2023-03-31T02:39:24;10.93;;;4.57;;
19343;SDS011;9808;52.402;16.678;2023-03-31T02:41:53;10.17;;;4.03;;
19343;SDS011;9808;52.402;16.678;2023-03-31T02:44:20;9.83;;;3.93;;
19343;SDS011;9808;52.402;16.678;2023-03-31T02:46:48;8.27;;;4.07;;
19343;SDS011;9808;52.402;16.678;2023-03-31T02:49:15;8.47;;;3.90;;
19343;SDS011;9808;52.402;16.678;2023-03-31T02:57:19;6.33;;;3.10;;
19343;SDS011;9808;52.402;16.678;2023-03-31T03:00:00;8.83;;;3.77;;
19343;SDS011;9808;52.402;16.678;2023-03-31T03:02:36;9.33;;;3.77;;
19343;SDS011;9808;52.402;16.678;2023-03-31T03:13:05;9.43;;;4.13;;
19343;SDS011;9808;52.402;16.678;2023-03-31T03:15:36;14.77;;;4.63;;
19343;SDS011;9808;52.402;16.678;2023-03-31T03:18:06;11.20;;;5.03;;
19343;SDS011;9808;52.402;16.678;2023-03-31T03:20:34;6.77;;;3.50;;
19343;SDS011;9808;52.402;16.678;2023-03-31T03:23:01;10.70;;;4.03;;
19343;SDS011;9808;52.402;16.678;2023-03-31T03:25:28;10.67;;;3.83;;
19343;SDS011;9808;52.402;16.678;2023-03-31T03:27:55;10.73;;;3.53;;
19343;SDS011;9808;52.402;16.678;2023-03-31T03:30:23;11.27;;;3.93;;
19343;SDS011;9808;52.402;16.678;2023-03-31T03:32:50;11.17;;;3.50;;
19343;SDS011;9808;52.402;16.678;2023-03-31T03:35:19;11.00;;;5.17;;
19343;SDS011;9808;52.402;16.678;2023-03-31T03:37:47;22.53;;;8.40;;
19343;SDS011;9808;52.402;16.678;2023-03-31T03:40:14;42.30;;;14.20;;
19343;SDS011;9808;52.402;16.678;2023-03-31T03:42:41;114.40;;;38.20;;
19343;SDS011;9808;52.402;16.678;2023-03-31T03:45:09;68.03;;;24.87;;
19343;SDS011;9808;52.402;16.678;2023-03-31T03:47:36;24.13;;;8.20;;
19343;SDS011;9808;52.402;16.678;2023-03-31T03:50:04;16.17;;;6.33;;
19343;SDS011;9808;52.402;16.678;2023-03-31T03:52:31;18.03;;;5.93;;
19343;SDS011;9808;52.402;16.678;2023-03-31T03:54:58;20.93;;;6.40;;
19343;SDS011;9808;52.402;16.678;2023-03-31T03:57:27;26.97;;;7.70;;
19343;SDS011;9808;52.402;16.678;2023-03-31T03:59:54;28.37;;;8.50;;
19343;SDS011;9808;52.402;16.678;2023-03-31T04:02:22;35.13;;;9.07;;
19343;SDS011;9808;52.402;16.678;2023-03-31T04:04:53;34.23;;;8.90;;
19343;SDS011;9808;52.402;16.678;2023-03-31T04:07:21;29.00;;;7.87;;
19343;SDS011;9808;52.402;16.678;2023-03-31T04:09:48;30.23;;;7.80;;
19343;SDS011;9808;52.402;16.678;2023-03-31T04:12:15;31.43;;;8.73;;
19343;SDS011;9808;52.402;16.678;2023-03-31T04:14:42;29.47;;;7.70;;
19343;SDS011;9808;52.402;16.678;2023-03-31T04:17:10;42.93;;;11.23;;
19343;SDS011;9808;52.402;16.678;2023-03-31T04:19:41;21.37;;;7.30;;
19343;SDS011;9808;52.402;16.678;2023-03-31T04:22:08;12.97;;;4.90;;
19343;SDS011;9808;52.402;16.678;2023-03-31T04:24:37;13.73;;;4.93;;
19343;SDS011;9808;52.402;16.678;2023-03-31T04:27:04;14.77;;;5.17;;
19343;SDS011;9808;52.402;16.678;2023-03-31T04:29:35;13.60;;;5.10;;
19343;SDS011;9808;52.402;16.678;2023-03-31T04:32:02;22.80;;;6.03;;
19343;SDS011;9808;52.402;16.678;2023-03-31T04:34:30;16.37;;;4.93;;
19343;SDS011;9808;52.402;16.678;2023-03-31T04:37:01;14.60;;;4.53;;
19343;SDS011;9808;52.402;16.678;2023-03-31T04:39:29;9.37;;;4.27;;
19343;SDS011;9808;52.402;16.678;2023-03-31T04:41:57;11.27;;;4.03;;
19343;SDS011;9808;52.402;16.678;2023-03-31T04:44:24;11.90;;;4.40;;
19343;SDS011;9808;52.402;16.678;2023-03-31T04:46:52;12.37;;;4.23;;
19343;SDS011;9808;52.402;16.678;2023-03-31T04:49:19;10.37;;;4.17;;
19343;SDS011;9808;52.402;16.678;2023-03-31T04:51:47;12.27;;;4.57;;
19343;SDS011;9808;52.402;16.678;2023-03-31T04:54:14;11.80;;;3.60;;
19343;SDS011;9808;52.402;16.678;2023-03-31T04:56:41;7.63;;;3.30;;
19343;SDS011;9808;52.402;16.678;2023-03-31T04:59:09;8.00;;;3.03;;
19343;SDS011;9808;52.402;16.678;2023-03-31T05:01:36;13.40;;;3.23;;
19343;SDS011;9808;52.402;16.678;2023-03-31T05:04:04;5.83;;;2.63;;
19343;SDS011;9808;52.402;16.678;2023-03-31T05:06:31;8.87;;;3.37;;
19343;SDS011;9808;52.402;16.678;2023-03-31T05:08:58;9.30;;;2.87;;
19343;SDS011;9808;52.402;16.678;2023-03-31T05:11:26;17.13;;;5.40;;
19343;SDS011;9808;52.402;16.678;2023-03-31T05:13:54;22.83;;;6.07;;
19343;SDS011;9808;52.402;16.678;2023-03-31T05:16:21;14.67;;;4.83;;
19343;SDS011;9808;52.402;16.678;2023-03-31T05:18:48;14.00;;;4.43;;
19343;SDS011;9808;52.402;16.678;2023-03-31T05:21:17;11.13;;;2.90;;
19343;SDS011;9808;52.402;16.678;2023-03-31T05:23:44;10.30;;;3.10;;
19343;SDS011;9808;52.402;16.678;2023-03-31T05:26:12;14.17;;;4.03;;
19343;SDS011;9808;52.402;16.678;2023-03-31T05:28:40;19.67;;;5.30;;
19343;SDS011;9808;52.402;16.678;2023-03-31T05:31:07;23.83;;;5.97;;
19343;SDS011;9808;52.402;16.678;2023-03-31T05:33:35;14.43;;;4.67;;
19343;SDS011;9808;52.402;16.678;2023-03-31T05:36:08;16.77;;;5.17;;
19343;SDS011;9808;52.402;16.678;2023-03-31T05:38:36;12.50;;;4.50;;
19343;SDS011;9808;52.402;16.678;2023-03-31T05:41:03;12.43;;;4.73;;
19343;SDS011;9808;52.402;16.678;2023-03-31T05:43:32;15.20;;;4.90;;
19343;SDS011;9808;52.402;16.678;2023-03-31T05:45:59;16.30;;;5.70;;
19343;SDS011;9808;52.402;16.678;2023-03-31T05:48:27;16.10;;;5.53;;
19343;SDS011;9808;52.402;16.678;2023-03-31T05:50:55;19.07;;;6.40;;
19343;SDS011;9808;52.402;16.678;2023-03-31T05:53:23;17.77;;;5.83;;
19343;SDS011;9808;52.402;16.678;2023-03-31T05:56:00;14.77;;;5.07;;
19343;SDS011;9808;52.402;16.678;2023-03-31T05:58:28;13.63;;;3.97;;
19343;SDS011;9808;52.402;16.678;2023-03-31T06:01:01;9.97;;;3.60;;
19343;SDS011;9808;52.402;16.678;2023-03-31T06:03:32;12.43;;;4.40;;
19343;SDS011;9808;52.402;16.678;2023-03-31T06:06:00;13.20;;;3.80;;
19343;SDS011;9808;52.402;16.678;2023-03-31T06:08:28;9.90;;;3.33;;
19343;SDS011;9808;52.402;16.678;2023-03-31T06:10:55;10.10;;;3.57;;
19343;SDS011;9808;52.402;16.678;2023-03-31T06:13:22;11.37;;;3.63;;
19343;SDS011;9808;52.402;16.678;2023-03-31T06:15:53;8.00;;;3.30;;
19343;SDS011;9808;52.402;16.678;2023-03-31T06:18:21;14.63;;;3.97;;
19343;SDS011;9808;52.402;16.678;2023-03-31T06:20:48;9.67;;;2.87;;
19343;SDS011;9808;52.402;16.678;2023-03-31T06:23:16;7.50;;;2.87;;
19343;SDS011;9808;52.402;16.678;2023-03-31T06:25:43;6.57;;;3.00;;
19343;SDS011;9808;52.402;16.678;2023-03-31T06:28:17;7.53;;;2.73;;
19343;SDS011;9808;52.402;16.678;2023-03-31T06:30:44;7.80;;;3.27;;
19343;SDS011;9808;52.402;16.678;2023-03-31T06:33:12;5.70;;;2.80;;
19343;SDS011;9808;52.402;16.678;2023-03-31T06:35:41;7.13;;;2.70;;
19343;SDS011;9808;52.402;16.678;2023-03-31T06:38:09;11.17;;;3.00;;
19343;SDS011;9808;52.402;16.678;2023-03-31T06:40:36;8.53;;;2.90;;
19343;SDS011;9808;52.402;16.678;2023-03-31T06:43:04;8.37;;;2.73;;
19343;SDS011;9808;52.402;16.678;2023-03-31T06:45:31;6.57;;;3.20;;
19343;SDS011;9808;52.402;16.678;2023-03-31T06:47:58;8.47;;;3.13;;
19343;SDS011;9808;52.402;16.678;2023-03-31T06:50:26;8.60;;;2.80;;
19343;SDS011;9808;52.402;16.678;2023-03-31T06:52:53;8.13;;;3.13;;
19343;SDS011;9808;52.402;16.678;2023-03-31T06:55:21;7.47;;;2.90;;
19343;SDS011;9808;52.402;16.678;2023-03-31T06:57:48;8.63;;;3.47;;
19343;SDS011;9808;52.402;16.678;2023-03-31T07:00:16;7.67;;;3.27;;
19343;SDS011;9808;52.402;16.678;2023-03-31T07:02:48;11.27;;;3.33;;
19343;SDS011;9808;52.402;16.678;2023-03-31T07:05:15;6.73;;;3.03;;
19343;SDS011;9808;52.402;16.678;2023-03-31T07:07:43;10.37;;;3.13;;
19343;SDS011;9808;52.402;16.678;2023-03-31T07:10:12;11.03;;;3.50;;
19343;SDS011;9808;52.402;16.678;2023-03-31T07:12:39;9.10;;;3.70;;
19343;SDS011;9808;52.402;16.678;2023-03-31T07:15:06;8.97;;;3.90;;
19343;SDS011;9808;52.402;16.678;2023-03-31T07:17:33;8.37;;;3.10;;
19343;SDS011;9808;52.402;16.678;2023-03-31T07:20:03;11.77;;;3.40;;
19343;SDS011;9808;52.402;16.678;2023-03-31T07:22:35;12.23;;;3.13;;
19343;SDS011;9808;52.402;16.678;2023-03-31T07:25:02;6.93;;;2.93;;
19343;SDS011;9808;52.402;16.678;2023-03-31T07:27:30;8.60;;;3.23;;
19343;SDS011;9808;52.402;16.678;2023-03-31T07:29:57;8.80;;;3.20;;
19343;SDS011;9808;52.402;16.678;2023-03-31T07:32:25;11.33;;;3.70;;
19343;SDS011;9808;52.402;16.678;2023-03-31T07:34:54;7.23;;;2.80;;
19343;SDS011;9808;52.402;16.678;2023-03-31T07:37:21;8.37;;;3.13;;
19343;SDS011;9808;52.402;16.678;2023-03-31T07:39:48;9.45;;;3.08;;
19343;SDS011;9808;52.402;16.678;2023-03-31T07:42:16;9.97;;;3.20;;
19343;SDS011;9808;52.402;16.678;2023-03-31T07:44:43;8.77;;;3.17;;
19343;SDS011;9808;52.402;16.678;2023-03-31T07:47:10;8.00;;;3.15;;
19343;SDS011;9808;52.402;16.678;2023-03-31T07:49:37;9.73;;;3.30;;
19343;SDS011;9808;52.402;16.678;2023-03-31T07:52:05;13.27;;;3.70;;
19343;SDS011;9808;52.402;16.678;2023-03-31T07:54:32;9.85;;;3.20;;
19343;SDS011;9808;52.402;16.678;2023-03-31T07:57:00;7.63;;;3.50;;
19343;SDS011;9808;52.402;16.678;2023-03-31T07:59:29;10.98;;;3.75;;
19343;SDS011;9808;52.402;16.678;2023-03-31T08:01:56;12.82;;;3.08;;
19343;SDS011;9808;52.402;16.678;2023-03-31T08:04:24;6.97;;;3.20;;
19343;SDS011;9808;52.402;16.678;2023-03-31T08:06:51;10.68;;;3.72;;
19343;SDS011;9808;52.402;16.678;2023-03-31T08:09:19;7.13;;;3.13;;
19343;SDS011;9808;52.402;16.678;2023-03-31T08:11:48;9.05;;;3.58;;
19343;SDS011;9808;52.402;16.678;2023-03-31T08:14:15;8.07;;;3.10;;
19343;SDS011;9808;52.402;16.678;2023-03-31T08:16:59;9.98;;;3.28;;
19343;SDS011;9808;52.402;16.678;2023-03-31T08:19:26;6.72;;;3.55;;
19343;SDS011;9808;52.402;16.678;2023-03-31T08:21:53;14.88;;;3.40;;
19343;SDS011;9808;52.402;16.678;2023-03-31T08:24:21;9.10;;;3.38;;
19343;SDS011;9808;52.402;16.678;2023-03-31T08:26:48;12.02;;;3.42;;
19343;SDS011;9808;52.402;16.678;2023-03-31T08:29:15;7.32;;;3.10;;
19343;SDS011;9808;52.402;16.678;2023-03-31T08:31:43;9.00;;;4.50;;
19343;SDS011;9808;52.402;16.678;2023-03-31T08:34:10;7.78;;;3.35;;
19343;SDS011;9808;52.402;16.678;2023-03-31T08:36:37;13.65;;;3.40;;
19343;SDS011;9808;52.402;16.678;2023-03-31T08:39:05;7.63;;;3.03;;
19343;SDS011;9808;52.402;16.678;2023-03-31T08:41:35;9.63;;;3.35;;
19343;SDS011;9808;52.402;16.678;2023-03-31T08:44:04;9.63;;;2.97;;
19343;SDS011;9808;52.402;16.678;2023-03-31T08:46:33;10.35;;;3.55;;
19343;SDS011;9808;52.402;16.678;2023-03-31T08:49:01;9.05;;;3.60;;
19343;SDS011;9808;52.402;16.678;2023-03-31T08:51:33;10.13;;;3.53;;
19343;SDS011;9808;52.402;16.678;2023-03-31T08:54:05;6.40;;;3.03;;
19343;SDS011;9808;52.402;16.678;2023-03-31T08:56:40;12.32;;;3.35;;
19343;SDS011;9808;52.402;16.678;2023-03-31T09:02:13;10.38;;;3.47;;
19343;SDS011;9808;52.402;16.678;2023-03-31T09:04:54;10.80;;;3.10;;
19343;SDS011;9808;52.402;16.678;2023-03-31T09:12:21;9.23;;;3.55;;
19343;SDS011;9808;52.402;16.678;2023-03-31T09:14:51;7.93;;;3.10;;
19343;SDS011;9808;52.402;16.678;2023-03-31T09:17:23;9.10;;;3.30;;
19343;SDS011;9808;52.402;16.678;2023-03-31T09:19:59;5.50;;;2.40;;
19343;SDS011;9808;52.402;16.678;2023-03-31T09:22:34;8.05;;;2.80;;
19343;SDS011;9808;52.402;16.678;2023-03-31T09:27:49;10.95;;;3.50;;
19343;SDS011;9808;52.402;16.678;2023-03-31T09:30:23;10.23;;;3.10;;
19343;SDS011;9808;52.402;16.678;2023-03-31T09:33:14;9.98;;;3.17;;
19343;SDS011;9808;52.402;16.678;2023-03-31T09:35:40;10.15;;;3.60;;
19343;SDS011;9808;52.402;16.678;2023-03-31T09:38:10;9.77;;;3.03;;
19343;SDS011;9808;52.402;16.678;2023-03-31T09:40:38;9.43;;;3.20;;
19343;SDS011;9808;52.402;16.678;2023-03-31T09:43:07;10.15;;;3.55;;
19343;SDS011;9808;52.402;16.678;2023-03-31T09:45:34;11.70;;;3.72;;
19343;SDS011;9808;52.402;16.678;2023-03-31T09:48:06;9.73;;;3.60;;
19343;SDS011;9808;52.402;16.678;2023-03-31T09:50:42;9.45;;;3.58;;
19343;SDS011;9808;52.402;16.678;2023-03-31T09:53:17;9.23;;;3.15;;
19343;SDS011;9808;52.402;16.678;2023-03-31T09:55:46;10.50;;;3.15;;
19343;SDS011;9808;52.402;16.678;2023-03-31T09:58:17;10.07;;;3.30;;
19343;SDS011;9808;52.402;16.678;2023-03-31T10:00:57;12.63;;;2.92;;
19343;SDS011;9808;52.402;16.678;2023-03-31T10:03:25;10.35;;;3.40;;
19343;SDS011;9808;52.402;16.678;2023-03-31T10:05:55;13.70;;;3.25;;
19343;SDS011;9808;52.402;16.678;2023-03-31T10:08:27;9.90;;;2.95;;
19343;SDS011;9808;52.402;16.678;2023-03-31T10:11:05;8.27;;;3.22;;
19343;SDS011;9808;52.402;16.678;2023-03-31T10:13:44;7.00;;;3.20;;
19343;SDS011;9808;52.402;16.678;2023-03-31T10:16:13;10.20;;;3.20;;
19343;SDS011;9808;52.402;16.678;2023-03-31T10:18:41;11.68;;;3.67;;
19343;SDS011;9808;52.402;16.678;2023-03-31T10:21:35;8.85;;;3.28;;
19343;SDS011;9808;52.402;16.678;2023-03-31T10:23:57;10.25;;;3.22;;
19343;SDS011;9808;52.402;16.678;2023-03-31T10:26:27;8.70;;;3.53;;
19343;SDS011;9808;52.402;16.678;2023-03-31T10:28:54;11.00;;;3.30;;
19343;SDS011;9808;52.402;16.678;2023-03-31T10:31:26;9.45;;;2.80;;
19343;SDS011;9808;52.402;16.678;2023-03-31T10:34:03;9.90;;;3.30;;
19343;SDS011;9808;52.402;16.678;2023-03-31T10:36:30;9.07;;;3.30;;
19343;SDS011;9808;52.402;16.678;2023-03-31T10:38:58;9.90;;;2.95;;
19343;SDS011;9808;52.402;16.678;2023-03-31T10:41:27;8.30;;;3.92;;
19343;SDS011;9808;52.402;16.678;2023-03-31T10:43:55;7.28;;;2.97;;
19343;SDS011;9808;52.402;16.678;2023-03-31T10:49:14;9.18;;;3.45;;
19343;SDS011;9808;52.402;16.678;2023-03-31T10:51:49;11.60;;;3.67;;
19343;SDS011;9808;52.402;16.678;2023-03-31T10:54:18;9.65;;;3.53;;
19343;SDS011;9808;52.402;16.678;2023-03-31T10:56:46;10.80;;;3.55;;
19343;SDS011;9808;52.402;16.678;2023-03-31T11:15:24;8.07;;;3.17;;
19343;SDS011;9808;52.402;16.678;2023-03-31T11:17:57;8.95;;;3.20;;
19343;SDS011;9808;52.402;16.678;2023-03-31T11:23:06;10.20;;;3.17;;
19343;SDS011;9808;52.402;16.678;2023-03-31T11:25:55;10.85;;;3.10;;
19343;SDS011;9808;52.402;16.678;2023-03-31T11:33:42;7.78;;;2.80;;
19343;SDS011;9808;52.402;16.678;2023-03-31T11:41:12;9.55;;;3.15;;
19343;SDS011;9808;52.402;16.678;2023-03-31T11:43:47;10.38;;;3.40;;
19343;SDS011;9808;52.402;16.678;2023-03-31T11:46:20;8.50;;;2.83;;
19343;SDS011;9808;52.402;16.678;2023-03-31T11:51:19;10.63;;;3.30;;
19343;SDS011;9808;52.402;16.678;2023-03-31T11:53:47;12.43;;;4.20;;
19343;SDS011;9808;52.402;16.678;2023-03-31T11:56:17;12.85;;;4.55;;
19343;SDS011;9808;52.402;16.678;2023-03-31T11:58:52;11.43;;;3.10;;
19343;SDS011;9808;52.402;16.678;2023-03-31T12:01:27;7.13;;;3.35;;
19343;SDS011;9808;52.402;16.678;2023-03-31T12:04:03;5.72;;;2.90;;
19343;SDS011;9808;52.402;16.678;2023-03-31T12:06:32;9.80;;;3.67;;
19343;SDS011;9808;52.402;16.678;2023-03-31T12:09:10;11.55;;;3.35;;
19343;SDS011;9808;52.402;16.678;2023-03-31T12:11:41;6.80;;;3.10;;
19343;SDS011;9808;52.402;16.678;2023-03-31T12:14:24;7.43;;;2.72;;
19343;SDS011;9808;52.402;16.678;2023-03-31T12:17:15;7.18;;;2.83;;
19343;SDS011;9808;52.402;16.678;2023-03-31T12:22:16;36.20;;;13.82;;
19343;SDS011;9808;52.402;16.678;2023-03-31T12:24:45;42.10;;;17.40;;
19343;SDS011;9808;52.402;16.678;2023-03-31T12:27:16;17.52;;;6.53;;
19343;SDS011;9808;52.402;16.678;2023-03-31T12:29:45;8.95;;;4.10;;
19343;SDS011;9808;52.402;16.678;2023-03-31T12:32:15;8.60;;;3.53;;
19343;SDS011;9808;52.402;16.678;2023-03-31T12:34:45;12.70;;;3.95;;
19343;SDS011;9808;52.402;16.678;2023-03-31T12:40:14;10.23;;;3.53;;
19343;SDS011;9808;52.402;16.678;2023-03-31T12:45:27;7.43;;;3.25;;
19343;SDS011;9808;52.402;16.678;2023-03-31T12:48:43;7.53;;;3.53;;
19343;SDS011;9808;52.402;16.678;2023-03-31T12:53:24;12.57;;;3.80;;
19343;SDS011;9808;52.402;16.678;2023-03-31T12:55:57;8.25;;;3.15;;
19343;SDS011;9808;52.402;16.678;2023-03-31T13:06:00;12.30;;;4.32;;
19343;SDS011;9808;52.402;16.678;2023-03-31T13:11:16;13.80;;;4.70;;
19343;SDS011;9808;52.402;16.678;2023-03-31T13:13:52;11.43;;;4.45;;
19343;SDS011;9808;52.402;16.678;2023-03-31T13:16:26;9.43;;;4.03;;
19343;SDS011;9808;52.402;16.678;2023-03-31T13:18:54;12.00;;;4.28;;
19343;SDS011;9808;52.402;16.678;2023-03-31T13:21:28;10.30;;;3.40;;
19343;SDS011;9808;52.402;16.678;2023-03-31T13:23:59;13.52;;;3.90;;
19343;SDS011;9808;52.402;16.678;2023-03-31T13:34:23;9.32;;;4.20;;
19343;SDS011;9808;52.402;16.678;2023-03-31T13:42:47;12.25;;;4.88;;
19343;SDS011;9808;52.402;16.678;2023-03-31T13:45:44;10.00;;;4.15;;
19343;SDS011;9808;52.402;16.678;2023-03-31T13:53:10;12.20;;;4.45;;
19343;SDS011;9808;52.402;16.678;2023-03-31T14:03:54;10.95;;;4.57;;
19343;SDS011;9808;52.402;16.678;2023-03-31T14:06:27;11.85;;;5.55;;
19343;SDS011;9808;52.402;16.678;2023-03-31T14:09:04;14.10;;;5.25;;
19343;SDS011;9808;52.402;16.678;2023-03-31T14:11:32;10.80;;;4.82;;
19343;SDS011;9808;52.402;16.678;2023-03-31T14:14:00;12.23;;;4.50;;
19343;SDS011;9808;52.402;16.678;2023-03-31T14:16:30;11.30;;;4.47;;
19343;SDS011;9808;52.402;16.678;2023-03-31T14:21:50;15.18;;;5.20;;
19343;SDS011;9808;52.402;16.678;2023-03-31T14:29:38;13.88;;;5.30;;
19343;SDS011;9808;52.402;16.678;2023-03-31T14:35:00;13.77;;;6.65;;
19343;SDS011;9808;52.402;16.678;2023-03-31T14:37:28;16.08;;;7.35;;
19343;SDS011;9808;52.402;16.678;2023-03-31T14:39:56;15.20;;;6.10;;
19343;SDS011;9808;52.402;16.678;2023-03-31T14:42:36;12.13;;;5.13;;
19343;SDS011;9808;52.402;16.678;2023-03-31T14:45:06;12.75;;;4.95;;
19343;SDS011;9808;52.402;16.678;2023-03-31T14:47:39;14.30;;;6.07;;
19343;SDS011;9808;52.402;16.678;2023-03-31T14:52:39;12.73;;;6.25;;
19343;SDS011;9808;52.402;16.678;2023-03-31T14:55:13;15.40;;;6.18;;
19343;SDS011;9808;52.402;16.678;2023-03-31T14:57:41;13.50;;;5.93;;
19343;SDS011;9808;52.402;16.678;2023-03-31T15:00:12;14.30;;;6.03;;
19343;SDS011;9808;52.402;16.678;2023-03-31T15:02:41;14.13;;;7.35;;
19343;SDS011;9808;52.402;16.678;2023-03-31T15:05:26;13.32;;;6.72;;
19343;SDS011;9808;52.402;16.678;2023-03-31T15:07:57;25.52;;;10.25;;
19343;SDS011;9808;52.402;16.678;2023-03-31T15:10:34;29.23;;;13.48;;
19343;SDS011;9808;52.402;16.678;2023-03-31T15:13:09;35.47;;;16.65;;
19343;SDS011;9808;52.402;16.678;2023-03-31T15:15:37;28.38;;;8.48;;
19343;SDS011;9808;52.402;16.678;2023-03-31T15:18:04;9.88;;;4.72;;
19343;SDS011;9808;52.402;16.678;2023-03-31T15:20:36;7.85;;;3.50;;
19343;SDS011;9808;52.402;16.678;2023-03-31T15:23:17;7.95;;;3.00;;
19343;SDS011;9808;52.402;16.678;2023-03-31T15:25:55;10.38;;;2.08;;
19343;SDS011;9808;52.402;16.678;2023-03-31T15:28:22;7.90;;;2.47;;
19343;SDS011;9808;52.402;16.678;2023-03-31T15:30:51;13.38;;;2.70;;
19343;SDS011;9808;52.402;16.678;2023-03-31T15:33:35;9.18;;;2.40;;
19343;SDS011;9808;52.402;16.678;2023-03-31T15:36:10;7.78;;;2.85;;
19343;SDS011;9808;52.402;16.678;2023-03-31T15:38:38;10.23;;;2.95;;
19343;SDS011;9808;52.402;16.678;2023-03-31T15:41:12;9.02;;;2.80;;
19343;SDS011;9808;52.402;16.678;2023-03-31T15:46:19;7.05;;;3.00;;
19343;SDS011;9808;52.402;16.678;2023-03-31T15:48:51;5.93;;;2.42;;
19343;SDS011;9808;52.402;16.678;2023-03-31T15:51:53;7.95;;;3.28;;
19343;SDS011;9808;52.402;16.678;2023-03-31T15:56:52;11.50;;;3.80;;
19343;SDS011;9808;52.402;16.678;2023-03-31T15:59:23;12.48;;;4.30;;
19343;SDS011;9808;52.402;16.678;2023-03-31T16:02:17;12.30;;;4.30;;
19343;SDS011;9808;52.402;16.678;2023-03-31T16:04:48;11.85;;;4.78;;
19343;SDS011;9808;52.402;16.678;2023-03-31T16:15:06;10.30;;;3.78;;
19343;SDS011;9808;52.402;16.678;2023-03-31T16:17:33;9.15;;;4.22;;
19343;SDS011;9808;52.402;16.678;2023-03-31T16:22:54;10.82;;;4.57;;
19343;SDS011;9808;52.402;16.678;2023-03-31T16:25:24;11.43;;;4.35;;
19343;SDS011;9808;52.402;16.678;2023-03-31T16:27:53;12.63;;;4.85;;
19343;SDS011;9808;52.402;16.678;2023-03-31T16:30:31;15.65;;;5.10;;
19343;SDS011;9808;52.402;16.678;2023-03-31T16:33:12;12.73;;;5.00;;
19343;SDS011;9808;52.402;16.678;2023-03-31T16:35:41;11.32;;;5.03;;
19343;SDS011;9808;52.402;16.678;2023-03-31T16:38:09;17.52;;;5.07;;
19343;SDS011;9808;52.402;16.678;2023-03-31T16:40:38;12.73;;;4.78;;
19343;SDS011;9808;52.402;16.678;2023-03-31T16:43:18;13.93;;;5.05;;
19343;SDS011;9808;52.402;16.678;2023-03-31T16:45:50;11.85;;;5.03;;
19343;SDS011;9808;52.402;16.678;2023-03-31T16:48:19;13.57;;;5.47;;
19343;SDS011;9808;52.402;16.678;2023-03-31T16:50:48;14.33;;;4.63;;
19343;SDS011;9808;52.402;16.678;2023-03-31T16:53:18;10.83;;;4.83;;
19343;SDS011;9808;52.402;16.678;2023-03-31T16:55:47;13.40;;;5.07;;
19343;SDS011;9808;52.402;16.678;2023-03-31T16:58:14;16.03;;;6.03;;
19343;SDS011;9808;52.402;16.678;2023-03-31T17:00:43;14.90;;;5.80;;
19343;SDS011;9808;52.402;16.678;2023-03-31T17:03:11;9.57;;;5.23;;
19343;SDS011;9808;52.402;16.678;2023-03-31T17:05:40;8.83;;;4.73;;
19343;SDS011;9808;52.402;16.678;2023-03-31T17:08:09;9.87;;;4.57;;
19343;SDS011;9808;52.402;16.678;2023-03-31T17:10:37;8.30;;;4.70;;
19343;SDS011;9808;52.402;16.678;2023-03-31T17:13:04;8.97;;;4.90;;
19343;SDS011;9808;52.402;16.678;2023-03-31T17:15:32;16.73;;;9.30;;
19343;SDS011;9808;52.402;16.678;2023-03-31T17:18:02;12.87;;;7.30;;
19343;SDS011;9808;52.402;16.678;2023-03-31T17:20:30;12.70;;;7.50;;
19343;SDS011;9808;52.402;16.678;2023-03-31T17:22:58;25.33;;;10.40;;
19343;SDS011;9808;52.402;16.678;2023-03-31T17:25:25;23.83;;;12.13;;
19343;SDS011;9808;52.402;16.678;2023-03-31T17:27:52;31.27;;;14.53;;
19343;SDS011;9808;52.402;16.678;2023-03-31T17:30:21;44.63;;;19.93;;
19343;SDS011;9808;52.402;16.678;2023-03-31T17:32:49;44.17;;;21.00;;
19343;SDS011;9808;52.402;16.678;2023-03-31T17:35:17;37.70;;;16.98;;
19343;SDS011;9808;52.402;16.678;2023-03-31T17:37:48;45.20;;;20.00;;
19343;SDS011;9808;52.402;16.678;2023-03-31T17:40:20;40.97;;;18.00;;
19343;SDS011;9808;52.402;16.678;2023-03-31T17:42:47;24.80;;;11.73;;